createdAt,value
2019-05-01T00:01:58.243Z,95303.20
2019-05-01T00:07:07.219Z,95301.55
2019-05-01T00:12:08.538Z,95299.40
2019-05-01T00:17:09.974Z,95291.81
2019-05-01T00:22:11.408Z,95289.94
2019-05-01T00:27:12.772Z,95282.70
2019-05-01T00:32:14.135Z,95283.22
2019-05-01T00:37:15.479Z,95280.11
2019-05-01T00:42:17.582Z,95276.42
2019-05-01T00:47:18.945Z,95275.02
2019-05-01T00:52:20.237Z,95270.13
2019-05-01T00:57:22.461Z,95266.91
2019-05-01T01:02:26.670Z,95261.89
2019-05-01T01:07:28.104Z,95264.00
2019-05-01T01:12:29.498Z,95258.37
2019-05-01T01:17:30.841Z,95253.75
2019-05-01T01:22:32.236Z,95248.42
2019-05-01T01:27:33.611Z,95248.63
2019-05-01T01:32:34.967Z,95245.52
2019-05-01T01:37:36.308Z,95248.84
2019-05-01T01:42:37.661Z,95245.66
2019-05-01T01:53:08.839Z,95236.20
2019-05-01T01:58:10.483Z,95228.40
2019-05-01T02:03:12.614Z,95231.54
2019-05-01T02:08:13.985Z,95224.17
2019-05-01T02:13:15.343Z,95222.62
2019-05-01T02:18:16.722Z,95220.67
2019-05-01T02:23:18.148Z,95219.24
2019-05-01T02:28:21.296Z,95217.97
2019-05-01T02:33:22.674Z,95205.84
2019-05-01T02:38:24.074Z,95201.02
2019-05-01T02:43:26.001Z,95205.17
2019-05-01T02:48:27.344Z,95203.94
2019-05-01T02:53:28.705Z,95202.98
2019-05-01T02:58:30.070Z,95195.09
2019-05-01T03:03:31.436Z,95197.73
2019-05-01T03:08:32.778Z,95195.88
2019-05-01T03:13:34.211Z,95197.34
2019-05-01T03:18:35.882Z,95198.71
2019-05-01T03:23:43.031Z,95195.99
2019-05-01T03:28:44.331Z,95203.31
2019-05-01T03:33:45.757Z,95206.96
2019-05-01T03:38:47.092Z,95209.06
2019-05-01T03:43:49.190Z,95203.91
2019-05-01T03:48:51.285Z,95196.25
2019-05-01T03:53:52.732Z,95194.41
2019-05-01T03:58:54.122Z,95189.78
2019-05-01T04:04:00.481Z,95184.13
2019-05-01T04:09:02.265Z,95188.89
2019-05-01T04:14:03.703Z,95186.94
2019-05-01T04:19:06.763Z,95196.74
2019-05-01T04:24:08.096Z,95188.75
2019-05-01T04:34:57.855Z,95215.45
2019-05-01T04:39:59.177Z,95215.74
2019-05-01T04:45:01.231Z,95217.72
2019-05-01T04:50:02.579Z,95220.11
2019-05-01T04:55:03.989Z,95225.16
2019-05-01T05:00:05.365Z,95229.00
2019-05-01T05:05:06.727Z,95231.97
2019-05-01T05:10:08.097Z,95238.87
2019-05-01T05:20:42.368Z,95250.20
2019-05-01T05:25:45.050Z,95249.16
2019-05-01T05:30:46.497Z,95241.11
2019-05-01T05:35:48.614Z,95247.28
2019-05-01T05:40:50.638Z,95243.98
2019-05-01T05:45:52.124Z,95249.09
2019-05-01T05:50:56.481Z,95245.60
2019-05-01T05:55:58.655Z,95248.98
2019-05-01T06:01:07.696Z,95248.28
2019-05-01T06:06:16.434Z,95251.52
2019-05-01T06:16:54.616Z,95245.22
2019-05-01T06:27:25.936Z,95243.23
2019-05-01T06:32:28.838Z,95245.86
2019-05-01T06:43:13.451Z,95244.37
2019-05-01T06:48:18.894Z,95248.61
2019-05-01T06:53:19.984Z,95256.34
2019-05-01T06:58:21.860Z,95249.69
2019-05-01T07:03:22.670Z,95253.47
2019-05-01T07:08:24.980Z,95244.30
2019-05-01T07:13:25.413Z,95243.23
2019-05-01T07:18:29.041Z,95241.34
2019-05-01T07:23:28.250Z,95236.34
2019-05-01T07:28:34.382Z,95235.66
2019-05-01T07:33:31.092Z,95239.41
2019-05-01T07:38:32.860Z,95240.44
2019-05-01T07:43:36.757Z,95241.84
2019-05-01T07:48:41.640Z,95236.70
2019-05-01T07:53:39.555Z,95235.73
2019-05-01T07:58:41.684Z,95237.77
2019-05-01T08:03:44.126Z,95231.94
2019-05-01T08:08:45.215Z,95245.05
2019-05-01T08:13:47.271Z,95241.78
2019-05-01T08:18:49.372Z,95235.56
2019-05-01T08:23:50.713Z,95238.53
2019-05-01T08:28:58.034Z,95231.91
2019-05-01T08:34:01.305Z,95228.93
2019-05-01T08:39:05.011Z,95228.53
2019-05-01T08:44:03.997Z,95240.75
2019-05-01T08:49:12.602Z,95245.49
2019-05-01T08:54:12.968Z,95232.38
2019-05-01T08:59:14.275Z,95242.34
2019-05-01T09:04:18.501Z,95236.75
2019-05-01T09:09:18.398Z,95235.00
2019-05-01T09:14:20.569Z,95226.61
2019-05-01T09:19:21.922Z,95227.63
2019-05-01T09:24:28.005Z,95225.04
2019-05-01T09:29:26.289Z,95224.91
2019-05-01T09:34:27.649Z,95216.73
2019-05-01T09:39:30.376Z,95223.02
2019-05-01T09:44:31.729Z,95209.43
2019-05-01T09:49:33.125Z,95206.98
2019-05-01T09:54:34.489Z,95205.41
2019-05-01T09:59:35.868Z,95207.14
2019-05-01T10:04:37.271Z,95208.77
2019-05-01T10:09:39.162Z,95197.92
2019-05-01T10:14:42.197Z,95197.16
2019-05-01T10:19:43.597Z,95195.22
2019-05-01T10:24:44.910Z,95194.51
2019-05-01T10:35:20.945Z,95180.52
2019-05-01T10:40:22.387Z,95177.84
2019-05-01T10:45:24.106Z,95173.04
2019-05-01T10:50:25.438Z,95168.27
2019-05-01T10:55:27.783Z,95171.37
2019-05-01T11:00:34.052Z,95167.00
2019-05-01T11:05:36.091Z,95160.81
2019-05-01T11:10:37.817Z,95165.48
2019-05-01T11:15:39.158Z,95156.20
2019-05-01T11:20:40.531Z,95155.41
2019-05-01T11:25:44.632Z,95146.73
2019-05-01T11:30:44.106Z,95146.52
2019-05-01T11:41:14.956Z,95138.05
2019-05-01T11:46:17.039Z,95128.17
2019-05-01T11:51:18.432Z,95123.22
2019-05-01T11:56:19.797Z,95123.51
2019-05-01T12:01:21.165Z,95122.77
2019-05-01T12:06:23.337Z,95121.55
2019-05-01T12:11:23.918Z,95116.11
2019-05-01T12:16:31.505Z,95108.84
2019-05-01T12:21:32.841Z,95112.41
2019-05-01T12:26:34.903Z,95105.50
2019-05-01T12:31:36.368Z,95107.09
2019-05-01T12:36:37.743Z,95107.49
2019-05-01T12:41:42.985Z,95097.76
2019-05-01T12:46:50.473Z,95092.46
2019-05-01T12:51:52.139Z,95083.30
2019-05-01T12:56:53.554Z,95084.23
2019-05-01T13:01:55.776Z,95084.67
2019-05-01T13:06:57.163Z,95072.88
2019-05-01T13:11:58.520Z,95068.77
2019-05-01T13:17:00.528Z,95070.75
2019-05-01T13:22:01.869Z,95064.38
2019-05-01T13:27:03.353Z,95057.23
2019-05-01T13:37:32.554Z,95051.48
2019-05-01T13:42:33.870Z,95035.03
2019-05-01T13:47:35.220Z,95035.10
2019-05-01T13:52:36.591Z,95025.09
2019-05-01T13:57:38.033Z,95018.84
2019-05-01T14:02:39.376Z,95023.34
2019-05-01T14:07:40.696Z,95018.46
2019-05-01T14:12:42.024Z,95003.13
2019-05-01T14:17:46.057Z,95007.94
2019-05-01T14:22:49.556Z,94997.70
2019-05-01T14:27:50.914Z,94990.48
2019-05-01T14:32:52.231Z,94987.94
2019-05-01T14:37:53.601Z,94990.91
2019-05-01T14:42:54.947Z,94981.64
2019-05-01T14:47:56.971Z,94977.59
2019-05-01T14:52:58.340Z,94970.28
2019-05-01T14:57:59.661Z,94966.34
2019-05-01T15:03:00.992Z,94959.06
2019-05-01T15:08:02.358Z,94947.19
2019-05-01T15:18:40.281Z,94945.64
2019-05-01T15:23:53.024Z,94937.71
2019-05-01T15:28:43.344Z,94939.73
2019-05-01T15:33:44.656Z,94937.96
2019-05-01T15:38:46.012Z,94934.17
2019-05-01T15:43:53.187Z,94937.22
2019-05-01T15:48:54.516Z,94929.36
2019-05-01T15:53:55.848Z,94929.73
2019-05-01T15:58:57.187Z,94930.38
2019-05-01T16:03:58.619Z,94920.47
2019-05-01T16:09:00.021Z,94925.53
2019-05-01T16:14:01.378Z,94918.08
2019-05-01T16:19:02.834Z,94914.58
2019-05-01T16:24:04.180Z,94905.34
2019-05-01T16:29:05.500Z,94910.81
2019-05-01T16:34:06.833Z,94912.30
2019-05-01T16:39:13.244Z,94904.83
2019-05-01T16:44:14.516Z,94909.13
2019-05-01T16:49:16.570Z,94902.16
2019-05-01T16:54:17.882Z,94901.95
2019-05-01T16:59:20.106Z,94893.66
2019-05-01T17:10:07.059Z,94894.64
2019-05-01T17:15:08.405Z,94887.13
2019-05-01T17:20:09.747Z,94888.53
2019-05-01T17:25:11.878Z,94892.09
2019-05-01T17:30:16.081Z,94893.86
2019-05-01T17:35:17.471Z,94893.77
2019-05-01T17:40:18.854Z,94896.20
2019-05-01T17:45:20.221Z,94897.21
2019-05-01T17:50:22.407Z,94893.59
2019-05-01T17:55:23.694Z,94889.34
2019-05-01T18:00:31.952Z,94890.21
2019-05-01T18:05:33.254Z,94891.58
2019-05-01T18:10:38.520Z,94888.70
2019-05-01T18:15:35.923Z,94898.27
2019-05-01T18:20:38.045Z,94890.00
2019-05-01T18:25:39.430Z,94892.57
2019-05-01T18:30:40.788Z,94889.14
2019-05-01T18:35:44.901Z,94887.02
2019-05-01T18:40:43.521Z,94890.39
2019-05-01T18:45:45.749Z,94902.08
2019-05-01T18:50:49.498Z,94901.98
2019-05-01T18:55:49.255Z,94899.23
2019-05-01T19:00:50.697Z,94899.41
2019-05-01T19:05:52.117Z,94902.00
2019-05-01T19:10:54.281Z,94891.97
2019-05-01T19:15:55.761Z,94899.42
2019-05-01T19:20:59.661Z,94903.61
2019-05-01T19:26:04.917Z,94901.17
2019-05-01T19:31:00.041Z,94902.13
2019-05-01T19:36:02.508Z,94905.94
2019-05-01T19:41:08.342Z,94901.06
2019-05-01T19:46:05.028Z,94912.43
2019-05-01T19:51:06.252Z,94914.86
2019-05-01T19:56:08.315Z,94911.08
2019-05-01T20:01:09.690Z,94916.89
2019-05-01T20:06:11.773Z,94914.64
2019-05-01T20:11:13.819Z,94915.38
2019-05-01T20:16:15.222Z,94917.23
2019-05-01T20:21:17.297Z,94918.41
2019-05-01T20:26:19.539Z,94907.55
2019-05-01T20:31:22.863Z,94903.52
2019-05-01T20:36:23.047Z,94907.70
2019-05-01T20:41:24.420Z,94897.78
2019-05-01T20:46:27.648Z,94895.95
2019-05-01T20:51:27.123Z,94895.03
2019-05-01T20:56:29.391Z,94894.70
2019-05-01T21:01:30.735Z,94893.04
2019-05-01T21:06:33.831Z,94897.85
2019-05-01T21:11:35.181Z,94888.05
2019-05-01T21:16:37.872Z,94889.61
2019-05-01T21:21:37.857Z,94887.43
2019-05-01T21:26:39.727Z,94881.47
2019-05-01T21:31:41.050Z,94875.72
2019-05-01T21:36:42.372Z,94876.27
2019-05-01T21:41:44.449Z,94880.83
2019-05-01T21:46:46.509Z,94876.41
2019-05-01T21:51:47.843Z,94877.62
2019-05-01T21:56:49.178Z,94877.40
2019-05-01T22:01:50.512Z,94867.66
2019-05-01T22:06:53.538Z,94864.67
2019-05-01T22:11:53.217Z,94861.58
2019-05-01T22:16:56.850Z,94858.30
2019-05-01T22:27:27.780Z,94858.03
2019-05-01T22:32:32.394Z,94853.33
2019-05-01T22:37:31.169Z,94845.53
2019-05-01T22:42:32.538Z,94847.47
2019-05-01T22:47:35.805Z,94845.80
2019-05-01T22:52:37.144Z,94851.64
2019-05-01T22:57:39.238Z,94848.73
2019-05-01T23:02:41.313Z,94847.03
2019-05-01T23:07:43.380Z,94843.73
2019-05-01T23:12:45.459Z,94851.38
2019-05-01T23:17:46.797Z,94841.22
2019-05-01T23:22:48.129Z,94839.02
2019-05-01T23:27:49.490Z,94837.14
2019-05-01T23:32:50.843Z,94832.44
2019-05-01T23:37:52.197Z,94828.73
2019-05-01T23:42:53.998Z,94819.45
2019-05-01T23:47:55.035Z,94818.74
2019-05-01T23:53:35.753Z,94813.52
2019-05-01T23:59:16.799Z,94800.83
